Time;durP1;ratioP1;P1;durP2;ratioP2;P2;SDS_P1;SDS_P2;PMS_P1;PMS_P2;Temp;Humidity;BMP_temperature;BMP_pressure;BME280_temperature;BME280_humidity;BME280_pressure;Samples;Min_cycle;Max_cycle;Signal;HPM_P1;HPM_P2
2022/02/15 00:01:52;;;;;;;0.60;0.60;;;3.30;99.90;;;;;;5012863;28;20233;-75
2022/02/15 00:04:17;;;;;;;0.70;0.70;;;3.30;99.90;;;;;;5014630;28;20207;-75
2022/02/15 00:06:44;;;;;;;0.50;0.50;;;3.20;99.90;;;;;;5012462;28;20227;-75
2022/02/15 00:09:10;;;;;;;0.50;0.50;;;3.30;99.90;;;;;;5011983;28;20555;-74
2022/02/15 00:11:36;;;;;;;1.35;1.25;;;3.20;99.90;;;;;;5012850;28;20202;-74
2022/02/15 00:14:02;;;;;;;0.65;0.65;;;3.30;99.90;;;;;;5011097;28;20265;-73
2022/02/15 00:16:27;;;;;;;0.68;0.68;;;3.30;99.90;;;;;;5012977;28;20679;-75
2022/02/15 00:18:53;;;;;;;41.75;2.00;;;3.20;99.90;;;;;;4997452;28;20655;-74
2022/02/15 00:21:19;;;;;;;0.75;0.75;;;3.30;99.90;;;;;;5013197;28;20205;-77
2022/02/15 00:23:45;;;;;;;0.65;0.65;;;3.20;99.90;;;;;;5013386;28;20209;-75
2022/02/15 00:26:10;;;;;;;0.68;0.68;;;3.30;99.90;;;;;;5014387;28;20272;-74
2022/02/15 00:28:36;;;;;;;0.93;0.93;;;3.20;99.90;;;;;;5012627;28;20670;-75
2022/02/15 00:31:02;;;;;;;0.80;0.80;;;3.20;99.90;;;;;;5011399;28;20206;-75
2022/02/15 00:33:27;;;;;;;0.60;0.60;;;3.20;99.90;;;;;;5011099;28;20578;-74
2022/02/15 00:35:55;;;;;;;0.57;0.57;;;3.20;99.90;;;;;;5013810;28;20293;-75
2022/02/15 00:38:21;;;;;;;0.57;0.57;;;3.20;99.90;;;;;;5011382;28;20222;-75
2022/02/15 00:40:46;;;;;;;0.57;0.57;;;3.20;99.90;;;;;;5012669;28;20322;-75
2022/02/15 00:43:12;;;;;;;0.50;0.50;;;3.30;99.90;;;;;;5012636;28;20274;-75
2022/02/15 00:45:38;;;;;;;0.60;0.60;;;3.30;99.90;;;;;;5010992;28;20215;-75
2022/02/15 00:48:04;;;;;;;0.60;0.60;;;3.30;99.90;;;;;;5011199;28;20234;-75
2022/02/15 00:50:29;;;;;;;4.65;1.83;;;3.20;99.90;;;;;;5012394;28;20288;-75
2022/02/15 00:52:55;;;;;;;0.60;0.60;;;3.20;99.90;;;;;;5011499;28;20242;-75
2022/02/15 00:55:21;;;;;;;0.80;0.80;;;3.20;99.90;;;;;;5012009;28;20206;-75
2022/02/15 00:57:47;;;;;;;0.60;0.60;;;3.10;99.90;;;;;;5010994;28;20199;-75
2022/02/15 01:00:13;;;;;;;0.60;0.60;;;3.10;99.90;;;;;;5012170;28;20203;-75
2022/02/15 01:02:40;;;;;;;0.70;0.70;;;3.20;99.90;;;;;;5012075;28;20226;-75
2022/02/15 01:05:06;;;;;;;0.52;0.52;;;3.20;99.90;;;;;;4994278;28;20627;-74
2022/02/15 01:07:32;;;;;;;0.60;0.60;;;3.20;99.90;;;;;;5011502;28;20195;-77
2022/02/15 01:09:58;;;;;;;0.80;0.80;;;3.20;99.90;;;;;;5013089;28;20199;-75
2022/02/15 01:12:24;;;;;;;0.50;0.50;;;3.20;99.90;;;;;;4996091;28;20219;-75
2022/02/15 01:14:50;;;;;;;0.70;0.70;;;3.20;99.90;;;;;;5011561;28;20229;-74
2022/02/15 01:17:16;;;;;;;0.80;0.80;;;3.30;99.90;;;;;;5010557;28;20242;-76
2022/02/15 01:19:41;;;;;;;0.60;0.60;;;3.30;99.90;;;;;;5011642;28;20195;-75
2022/02/15 01:22:07;;;;;;;0.70;0.70;;;3.30;99.90;;;;;;5010540;28;20206;-74
2022/02/15 01:24:33;;;;;;;0.50;0.50;;;3.30;99.90;;;;;;5010319;28;20213;-75
2022/02/15 01:26:59;;;;;;;0.60;0.60;;;3.30;99.90;;;;;;5011911;28;20202;-75
2022/02/15 01:29:24;;;;;;;0.60;0.60;;;3.30;99.90;;;;;;5013041;28;20234;-76
2022/02/15 01:31:51;;;;;;;5.45;1.55;;;3.30;99.90;;;;;;5011404;28;20210;-75
2022/02/15 01:34:17;;;;;;;0.60;0.60;;;3.40;99.90;;;;;;5020800;28;20208;-76
2022/02/15 01:36:43;;;;;;;0.60;0.60;;;3.40;99.90;;;;;;5013054;28;20194;-75
2022/02/15 01:39:08;;;;;;;0.70;0.70;;;3.40;99.90;;;;;;5011828;28;20252;-75
2022/02/15 01:41:34;;;;;;;0.70;0.70;;;3.40;99.90;;;;;;5010445;28;20195;-76
2022/02/15 01:44:00;;;;;;;1.40;1.30;;;3.40;99.90;;;;;;5010979;28;20556;-75
2022/02/15 01:46:25;;;;;;;0.60;0.60;;;3.40;99.90;;;;;;5010265;28;20191;-77
2022/02/15 01:48:51;;;;;;;0.70;0.70;;;3.40;99.90;;;;;;5010335;28;20227;-75
2022/02/15 01:51:17;;;;;;;0.60;0.60;;;3.40;99.90;;;;;;5011607;28;20210;-75
2022/02/15 01:53:44;;;;;;;0.70;0.70;;;3.40;99.90;;;;;;4993223;28;20658;-75
2022/02/15 01:56:12;;;;;;;0.80;0.80;;;3.50;99.90;;;;;;5011857;28;20696;-76
2022/02/15 01:58:39;;;;;;;0.60;0.60;;;3.50;99.90;;;;;;5026612;28;20623;-76
2022/02/15 02:01:04;;;;;;;1.10;1.05;;;3.50;99.90;;;;;;5011596;28;20264;-75
2022/02/15 02:03:30;;;;;;;0.60;0.60;;;3.50;99.90;;;;;;5011579;28;20617;-76
2022/02/15 02:05:56;;;;;;;0.95;0.95;;;3.60;99.90;;;;;;5010366;28;20637;-76
2022/02/15 02:08:27;;;;;;;0.60;0.60;;;3.50;99.90;;;;;;5012512;28;20237;-76
2022/02/15 02:10:54;;;;;;;0.50;0.50;;;3.50;99.90;;;;;;5011224;28;20210;-76
2022/02/15 02:13:20;;;;;;;0.63;0.63;;;3.40;99.90;;;;;;5011338;28;20229;-76
2022/02/15 02:15:46;;;;;;;0.60;0.60;;;3.30;99.90;;;;;;5009185;28;20214;-76
2022/02/15 02:18:13;;;;;;;0.55;0.55;;;3.30;99.90;;;;;;5011616;28;20201;-76
2022/02/15 02:20:39;;;;;;;0.68;0.68;;;3.30;99.90;;;;;;5009803;28;20591;-76
2022/02/15 02:23:09;;;;;;;0.60;0.60;;;3.20;99.90;;;;;;5004677;28;20715;-75
2022/02/15 02:25:35;;;;;;;0.55;0.55;;;3.20;99.90;;;;;;5005430;28;20683;-76
2022/02/15 02:28:02;;;;;;;0.60;0.60;;;3.20;99.90;;;;;;5014056;28;20237;-77
2022/02/15 02:30:28;;;;;;;0.52;0.52;;;3.10;99.90;;;;;;5013324;28;20199;-76
2022/02/15 02:32:53;;;;;;;0.55;0.55;;;3.10;99.90;;;;;;5014136;28;20209;-76
2022/02/15 02:35:21;;;;;;;0.70;0.70;;;3.10;99.90;;;;;;5013495;28;20207;-77
2022/02/15 02:37:47;;;;;;;0.60;0.60;;;3.10;99.90;;;;;;5015549;28;20195;-76
2022/02/15 02:40:13;;;;;;;0.60;0.60;;;3.20;99.90;;;;;;5014022;28;20626;-75
2022/02/15 02:42:40;;;;;;;0.50;0.50;;;3.10;99.90;;;;;;5014410;28;20265;-76
2022/02/15 02:45:12;;;;;;;0.80;0.80;;;3.10;99.90;;;;;;5015397;28;20327;-76
2022/02/15 02:47:42;;;;;;;0.50;0.50;;;3.10;99.90;;;;;;4997459;28;20227;-77
2022/02/15 02:50:08;;;;;;;0.60;0.60;;;3.10;99.90;;;;;;5014290;28;20207;-76
2022/02/15 02:52:33;;;;;;;0.60;0.60;;;3.10;99.90;;;;;;5015560;28;20210;-76
2022/02/15 02:54:59;;;;;;;0.65;0.65;;;3.10;99.90;;;;;;5014049;28;20215;-78
2022/02/15 02:57:24;;;;;;;0.68;0.68;;;3.10;99.90;;;;;;5013416;28;20205;-76
2022/02/15 02:59:50;;;;;;;0.70;0.70;;;3.10;99.90;;;;;;5012673;28;20214;-76
2022/02/15 03:02:16;;;;;;;0.70;0.70;;;3.10;99.90;;;;;;5011301;28;20195;-76
2022/02/15 03:04:43;;;;;;;0.80;0.80;;;3.10;99.90;;;;;;5014443;28;20215;-76
2022/02/15 03:07:09;;;;;;;0.60;0.60;;;3.10;99.90;;;;;;5013464;28;20298;-76
2022/02/15 03:09:36;;;;;;;0.50;0.50;;;3.10;99.90;;;;;;5012152;28;20210;-76
2022/02/15 03:12:02;;;;;;;0.52;0.52;;;3.20;99.90;;;;;;5014859;28;20198;-77
2022/02/15 03:14:28;;;;;;;0.60;0.60;;;3.20;99.90;;;;;;5015413;28;20679;-76
2022/02/15 03:16:53;;;;;;;0.60;0.60;;;3.20;99.90;;;;;;5013131;28;20249;-77
2022/02/15 03:19:19;;;;;;;1.13;1.13;;;3.10;99.90;;;;;;5015305;28;20203;-79
2022/02/15 03:21:45;;;;;;;0.70;0.70;;;3.20;99.90;;;;;;5013842;28;20282;-76
2022/02/15 03:24:10;;;;;;;0.50;0.50;;;3.20;99.90;;;;;;5014164;28;20222;-78
2022/02/15 03:26:36;;;;;;;0.50;0.50;;;3.20;99.90;;;;;;5013682;28;20203;-76
2022/02/15 03:29:03;;;;;;;0.70;0.70;;;3.20;99.90;;;;;;5014109;28;20594;-77
2022/02/15 03:31:29;;;;;;;0.50;0.50;;;3.20;99.90;;;;;;5012271;28;20774;-77
2022/02/15 03:33:55;;;;;;;0.60;0.60;;;3.20;99.90;;;;;;5013217;28;20278;-77
2022/02/15 03:36:21;;;;;;;0.70;0.70;;;3.20;99.90;;;;;;5029177;28;20219;-77
2022/02/15 03:38:47;;;;;;;0.60;0.60;;;3.20;99.90;;;;;;5014529;28;20288;-76
2022/02/15 03:43:56;;;;;;;0.63;0.63;;;3.10;99.90;;;;;;5015510;28;20218;-77
2022/02/15 03:46:23;;;;;;;0.93;0.93;;;3.20;99.90;;;;;;5014724;28;20674;-78
2022/02/15 03:48:49;;;;;;;0.60;0.60;;;3.20;99.90;;;;;;5014166;28;20261;-77
2022/02/15 03:51:15;;;;;;;0.50;0.50;;;3.20;99.90;;;;;;5014674;28;20206;-77
2022/02/15 03:53:41;;;;;;;0.60;0.60;;;3.10;99.90;;;;;;5012661;28;20570;-76
2022/02/15 03:56:09;;;;;;;0.70;0.70;;;3.10;99.90;;;;;;5012534;28;20307;-76
2022/02/15 03:58:35;;;;;;;0.60;0.60;;;3.10;99.90;;;;;;5011993;28;20575;-77
2022/02/15 04:01:01;;;;;;;0.55;0.55;;;3.10;99.90;;;;;;5013126;28;20328;-78
2022/02/15 04:03:27;;;;;;;0.50;0.50;;;3.10;99.90;;;;;;5013757;28;20206;-77
2022/02/15 04:05:54;;;;;;;0.52;0.52;;;3.00;99.90;;;;;;5015066;28;20210;-77
2022/02/15 04:08:21;;;;;;;0.60;0.60;;;3.00;99.90;;;;;;5013434;28;20753;-78
2022/02/15 04:10:48;;;;;;;0.70;0.70;;;3.10;99.90;;;;;;5007436;28;20647;-77
2022/02/15 04:13:13;;;;;;;0.52;0.52;;;3.10;99.90;;;;;;5013329;28;20215;-76
2022/02/15 04:15:39;;;;;;;0.60;0.60;;;3.10;99.90;;;;;;5013063;28;20735;-77
2022/02/15 04:18:05;;;;;;;0.60;0.60;;;3.00;99.90;;;;;;5013481;28;20225;-77
2022/02/15 04:20:31;;;;;;;0.60;0.60;;;3.10;99.90;;;;;;5010665;28;20204;-77
2022/02/15 04:22:57;;;;;;;0.68;0.68;;;3.10;99.90;;;;;;5011777;28;20210;-76
2022/02/15 04:25:23;;;;;;;0.60;0.60;;;3.10;99.90;;;;;;5011597;28;20306;-77
2022/02/15 04:27:48;;;;;;;1.00;1.00;;;3.00;99.90;;;;;;5014328;28;20689;-75
2022/02/15 04:30:14;;;;;;;0.60;0.60;;;3.00;99.90;;;;;;5011060;28;20215;-76
2022/02/15 04:32:40;;;;;;;0.68;0.68;;;3.00;99.90;;;;;;4994989;28;20218;-77
2022/02/15 04:35:06;;;;;;;0.60;0.60;;;3.00;99.90;;;;;;5012597;28;20281;-75
2022/02/15 04:37:32;;;;;;;0.60;0.60;;;3.00;99.90;;;;;;5012402;28;20593;-77
2022/02/15 04:39:58;;;;;;;0.50;0.50;;;2.90;99.90;;;;;;5012247;28;20207;-76
2022/02/15 04:42:24;;;;;;;0.55;0.55;;;3.00;99.90;;;;;;4993623;28;20207;-78
2022/02/15 04:44:50;;;;;;;0.60;0.60;;;3.00;99.90;;;;;;5012259;28;20725;-76
2022/02/15 04:47:16;;;;;;;0.70;0.70;;;3.00;99.90;;;;;;5010907;28;20227;-77
2022/02/15 04:49:41;;;;;;;0.60;0.60;;;3.00;99.90;;;;;;5013731;28;20218;-77
2022/02/15 04:52:07;;;;;;;0.57;0.57;;;3.00;99.90;;;;;;5014099;28;20294;-76
2022/02/15 04:54:33;;;;;;;0.60;0.60;;;2.90;99.90;;;;;;5011069;28;20218;-77
2022/02/15 04:56:59;;;;;;;0.60;0.60;;;2.90;99.90;;;;;;5014872;28;20726;-77
2022/02/15 04:59:24;;;;;;;0.50;0.50;;;2.90;99.90;;;;;;5027740;28;20209;-77
2022/02/15 05:01:50;;;;;;;0.63;0.63;;;2.90;99.90;;;;;;5011148;28;20272;-76
2022/02/15 05:07:00;;;;;;;0.57;0.57;;;2.90;99.90;;;;;;4999020;28;20737;-77
2022/02/15 05:09:27;;;;;;;0.50;0.50;;;2.90;99.90;;;;;;5006423;28;20206;-77
2022/02/15 05:11:54;;;;;;;0.60;0.60;;;2.90;99.90;;;;;;5007641;28;20199;-77
2022/02/15 05:14:21;;;;;;;0.60;0.60;;;2.90;99.90;;;;;;5012152;28;20631;-76
2022/02/15 05:16:47;;;;;;;0.70;0.70;;;2.90;99.90;;;;;;5011178;28;20679;-77
2022/02/15 05:19:13;;;;;;;0.70;0.70;;;3.00;99.90;;;;;;5010724;28;20233;-79
2022/02/15 05:21:39;;;;;;;0.60;0.60;;;3.00;99.90;;;;;;5011598;28;20594;-76
2022/02/15 05:24:05;;;;;;;0.63;0.63;;;3.00;99.90;;;;;;5010984;28;20199;-76
2022/02/15 05:26:31;;;;;;;0.60;0.60;;;3.00;99.90;;;;;;5010427;28;20733;-77
2022/02/15 05:28:57;;;;;;;0.65;0.65;;;3.00;99.90;;;;;;4986018;28;20220;-78
2022/02/15 05:31:23;;;;;;;0.52;0.52;;;3.00;99.90;;;;;;4996960;28;20222;-77
2022/02/15 05:33:49;;;;;;;0.70;0.70;;;3.00;99.90;;;;;;5010452;28;20271;-76
2022/02/15 05:36:15;;;;;;;0.50;0.50;;;3.10;99.90;;;;;;5011662;28;20206;-77
2022/02/15 05:38:42;;;;;;;0.60;0.60;;;3.10;99.90;;;;;;5011752;28;20207;-77
2022/02/15 05:41:08;;;;;;;0.60;0.60;;;3.20;99.90;;;;;;5012154;28;20211;-77
2022/02/15 05:43:37;;;;;;;0.50;0.50;;;3.20;99.90;;;;;;5010452;28;20199;-78
2022/02/15 05:46:03;;;;;;;0.60;0.60;;;3.20;99.90;;;;;;5011464;28;20607;-77
2022/02/15 05:48:29;;;;;;;0.60;0.60;;;3.20;99.90;;;;;;5011551;28;20231;-77
2022/02/15 05:50:55;;;;;;;0.60;0.60;;;3.20;99.90;;;;;;5009483;28;20214;-76
2022/02/15 05:53:25;;;;;;;0.70;0.70;;;3.10;99.90;;;;;;5011115;28;20673;-77
2022/02/15 05:55:52;;;;;;;0.60;0.60;;;3.20;99.90;;;;;;5009739;28;20210;-77
2022/02/15 05:58:22;;;;;;;0.65;0.65;;;3.20;99.90;;;;;;5013775;28;20607;-80
2022/02/15 06:00:48;;;;;;;0.75;0.75;;;3.20;99.90;;;;;;5014328;28;20198;-78
2022/02/15 06:05:58;;;;;;;0.60;0.60;;;3.20;99.90;;;;;;5000125;28;20213;-79
2022/02/15 06:08:24;;;;;;;0.65;0.65;;;3.20;99.90;;;;;;5016466;28;20195;-79
2022/02/15 06:10:51;;;;;;;0.52;0.52;;;3.20;99.90;;;;;;5031279;28;20356;-79
2022/02/15 06:13:18;;;;;;;0.65;0.65;;;3.20;99.90;;;;;;5014794;28;20293;-78
2022/02/15 06:15:44;;;;;;;0.60;0.60;;;3.30;99.90;;;;;;5015001;28;20588;-78
2022/02/15 06:18:11;;;;;;;0.93;0.93;;;3.20;99.90;;;;;;5016553;28;20207;-78
2022/02/15 06:20:36;;;;;;;1.23;1.20;;;3.20;99.90;;;;;;5015072;28;20520;-78
2022/02/15 06:23:03;;;;;;;1.40;1.30;;;3.30;99.90;;;;;;5013793;28;20207;-79
2022/02/15 06:25:28;;;;;;;0.50;0.50;;;3.30;99.90;;;;;;5013939;28;20669;-78
2022/02/15 06:27:54;;;;;;;0.68;0.68;;;3.30;99.90;;;;;;5013805;28;20203;-77
2022/02/15 06:30:20;;;;;;;1.17;1.17;;;3.30;99.90;;;;;;5013540;28;20215;-79
2022/02/15 06:32:46;;;;;;;0.50;0.50;;;3.30;99.90;;;;;;5012445;28;20206;-78
2022/02/15 06:35:12;;;;;;;0.68;0.68;;;3.30;99.90;;;;;;5014408;28;20213;-78
2022/02/15 06:37:42;;;;;;;0.60;0.60;;;3.20;99.90;;;;;;5013138;28;20289;-78
2022/02/15 06:40:08;;;;;;;0.70;0.70;;;3.20;99.90;;;;;;5013703;28;20298;-78
2022/02/15 06:42:35;;;;;;;1.05;0.93;;;3.20;99.90;;;;;;5007767;28;20311;-78
2022/02/15 06:45:01;;;;;;;0.60;0.60;;;3.20;99.90;;;;;;5005395;28;20202;-77
2022/02/15 06:47:27;;;;;;;0.60;0.60;;;3.20;99.90;;;;;;5013100;28;20253;-77
2022/02/15 06:49:52;;;;;;;0.70;0.70;;;3.20;99.90;;;;;;5013442;28;20234;-77
2022/02/15 06:52:18;;;;;;;1.00;1.00;;;3.20;99.90;;;;;;5012074;28;20466;-79
2022/02/15 06:54:44;;;;;;;0.60;0.60;;;3.20;99.90;;;;;;5013199;28;20211;-78
2022/02/15 06:57:09;;;;;;;0.80;0.80;;;3.20;99.90;;;;;;5012237;28;20208;-77
2022/02/15 06:59:35;;;;;;;0.60;0.60;;;3.20;99.90;;;;;;4994789;28;20199;-77
2022/02/15 07:02:03;;;;;;;0.60;0.60;;;3.30;99.90;;;;;;5014355;28;20256;-78
2022/02/15 07:04:29;;;;;;;0.65;0.65;;;3.20;99.90;;;;;;5013225;28;20202;-78
2022/02/15 07:06:55;;;;;;;0.70;0.70;;;3.20;99.90;;;;;;5012601;28;20286;-77
2022/02/15 07:09:22;;;;;;;0.68;0.68;;;3.20;99.90;;;;;;5014022;28;20687;-77
2022/02/15 07:11:47;;;;;;;0.75;0.75;;;3.30;99.90;;;;;;5013392;28;20665;-78
2022/02/15 07:14:13;;;;;;;0.60;0.60;;;3.30;99.90;;;;;;5012547;28;20289;-78
2022/02/15 07:16:41;;;;;;;0.60;0.60;;;3.30;99.90;;;;;;5014011;28;20203;-77
2022/02/15 07:19:06;;;;;;;0.85;0.82;;;3.40;99.90;;;;;;5012732;28;20207;-78
2022/02/15 07:21:32;;;;;;;1.13;1.02;;;3.40;99.90;;;;;;5012479;28;20297;-77
2022/02/15 07:23:58;;;;;;;4.60;1.60;;;3.50;99.90;;;;;;5012947;28;20203;-77
2022/02/15 07:26:24;;;;;;;0.80;0.80;;;3.50;99.90;;;;;;5011513;28;20720;-77
2022/02/15 07:28:50;;;;;;;0.60;0.60;;;3.50;99.90;;;;;;5013617;28;20307;-76
2022/02/15 07:31:15;;;;;;;0.80;0.80;;;3.50;99.90;;;;;;5013911;28;20213;-76
2022/02/15 07:33:41;;;;;;;0.50;0.50;;;3.40;99.90;;;;;;5014808;28;20195;-77
2022/02/15 07:36:07;;;;;;;0.45;0.45;;;3.40;99.90;;;;;;5013793;28;20213;-75
2022/02/15 07:38:33;;;;;;;0.70;0.70;;;3.40;99.90;;;;;;5012263;28;20282;-77
2022/02/15 07:40:58;;;;;;;0.77;0.77;;;3.40;99.90;;;;;;5011673;28;20233;-76
2022/02/15 07:43:25;;;;;;;0.80;0.80;;;3.40;99.90;;;;;;5013391;28;20278;-76
2022/02/15 07:45:51;;;;;;;0.65;0.65;;;3.40;99.90;;;;;;5013626;28;20260;-76
2022/02/15 07:48:17;;;;;;;0.57;0.57;;;3.40;99.90;;;;;;5013762;28;20262;-75
2022/02/15 07:50:43;;;;;;;0.65;0.65;;;3.40;99.90;;;;;;5013017;28;20241;-77
2022/02/15 07:53:09;;;;;;;0.68;0.68;;;3.30;99.90;;;;;;5014518;28;20264;-76
2022/02/15 07:55:34;;;;;;;1.00;0.95;;;3.30;99.90;;;;;;5013320;28;20682;-75
2022/02/15 07:58:00;;;;;;;0.80;0.80;;;3.30;99.90;;;;;;5014457;28;20289;-75
2022/02/15 08:00:26;;;;;;;0.85;0.85;;;3.40;99.90;;;;;;5012025;28;20194;-76
2022/02/15 08:02:53;;;;;;;0.85;0.85;;;3.40;99.90;;;;;;5012947;28;20207;-76
2022/02/15 08:05:20;;;;;;;0.60;0.60;;;3.40;99.90;;;;;;5013077;28;20318;-77
2022/02/15 08:07:57;;;;;;;1.45;1.25;;;3.40;99.90;;;;;;5010666;28;20297;-74
2022/02/15 08:10:24;;;;;;;1.15;1.00;;;3.40;99.90;;;;;;5012526;28;20205;-76
2022/02/15 08:12:57;;;;;;;2.67;2.25;;;3.30;99.90;;;;;;5011695;28;20213;-76
2022/02/15 08:15:27;;;;;;;0.60;0.60;;;3.40;99.90;;;;;;5014101;28;20214;-76
2022/02/15 08:17:52;;;;;;;0.70;0.70;;;3.30;99.90;;;;;;5012599;28;20268;-77
2022/02/15 08:20:18;;;;;;;0.55;0.55;;;3.30;99.90;;;;;;5009533;28;20628;-76
2022/02/15 08:22:44;;;;;;;0.60;0.60;;;3.30;99.90;;;;;;5012553;28;20205;-75
2022/02/15 08:25:10;;;;;;;0.68;0.68;;;3.40;99.90;;;;;;5013315;28;20211;-76
2022/02/15 08:27:35;;;;;;;0.60;0.60;;;3.30;99.90;;;;;;5011399;28;20585;-76
2022/02/15 08:30:01;;;;;;;0.60;0.60;;;3.40;99.90;;;;;;5012888;28;20203;-77
2022/02/15 08:32:27;;;;;;;0.60;0.60;;;3.40;99.90;;;;;;5011576;28;20210;-76
2022/02/15 08:34:53;;;;;;;0.68;0.68;;;3.50;99.90;;;;;;5011731;28;20234;-77
2022/02/15 08:37:19;;;;;;;0.60;0.60;;;3.50;99.90;;;;;;5012351;28;20199;-77
2022/02/15 08:39:46;;;;;;;0.70;0.70;;;3.50;99.90;;;;;;5013585;28;20215;-76
2022/02/15 08:42:11;;;;;;;0.50;0.50;;;3.50;99.90;;;;;;5012673;28;20626;-76
2022/02/15 08:44:37;;;;;;;0.80;0.80;;;3.50;99.90;;;;;;5012355;28;20237;-76
2022/02/15 08:47:08;;;;;;;0.57;0.57;;;3.50;99.90;;;;;;5011905;28;20218;-76
2022/02/15 08:49:34;;;;;;;0.50;0.50;;;3.50;99.90;;;;;;5028849;28;20254;-76
2022/02/15 08:52:00;;;;;;;1.30;1.13;;;3.50;99.90;;;;;;5011151;28;20203;-78
2022/02/15 08:54:26;;;;;;;0.60;0.60;;;3.50;99.90;;;;;;5011611;28;20206;-77
2022/02/15 08:56:51;;;;;;;0.98;0.95;;;3.50;99.90;;;;;;5011309;28;20252;-77
2022/02/15 08:59:17;;;;;;;0.70;0.70;;;3.50;99.90;;;;;;5010788;28;20239;-77
2022/02/15 09:01:43;;;;;;;0.75;0.75;;;3.50;99.90;;;;;;5011851;28;20617;-77
2022/02/15 09:04:09;;;;;;;0.50;0.50;;;3.40;99.90;;;;;;5020466;28;20206;-76
2022/02/15 09:06:36;;;;;;;1.60;0.95;;;3.40;99.90;;;;;;5013223;28;20261;-76
2022/02/15 09:09:03;;;;;;;0.60;0.60;;;3.40;99.90;;;;;;5012248;28;20203;-78
2022/02/15 09:11:29;;;;;;;0.60;0.60;;;3.40;99.90;;;;;;5011801;28;20225;-76
2022/02/15 09:13:54;;;;;;;0.60;0.60;;;3.50;99.90;;;;;;5012045;28;20663;-76
2022/02/15 09:16:20;;;;;;;0.80;0.80;;;3.40;99.90;;;;;;5010596;28;20787;-77
2022/02/15 09:18:46;;;;;;;0.60;0.60;;;3.40;99.90;;;;;;5011982;28;20261;-76
2022/02/15 09:21:11;;;;;;;0.60;0.60;;;3.40;99.90;;;;;;5011214;28;20210;-77
2022/02/15 09:23:37;;;;;;;0.60;0.60;;;3.40;99.90;;;;;;5010280;28;20256;-75
2022/02/15 09:26:03;;;;;;;0.60;0.60;;;3.40;99.90;;;;;;5008886;28;20207;-77
2022/02/15 09:28:30;;;;;;;0.60;0.60;;;3.40;99.90;;;;;;5012013;28;20210;-77
2022/02/15 09:30:55;;;;;;;0.60;0.60;;;3.40;99.90;;;;;;5011857;28;20313;-77
2022/02/15 09:33:23;;;;;;;0.70;0.70;;;3.40;99.90;;;;;;5011182;28;20203;-76
2022/02/15 09:35:49;;;;;;;0.63;0.63;;;3.50;99.90;;;;;;4994738;28;20211;-77
2022/02/15 09:38:15;;;;;;;0.60;0.60;;;3.50;99.90;;;;;;5012669;28;20609;-76
2022/02/15 09:40:42;;;;;;;0.70;0.70;;;3.40;99.90;;;;;;5010549;28;20268;-76
2022/02/15 09:43:08;;;;;;;0.70;0.70;;;3.40;99.90;;;;;;5011665;28;20670;-77
2022/02/15 09:45:34;;;;;;;0.65;0.65;;;3.40;99.90;;;;;;5010631;28;20252;-77
2022/02/15 09:48:02;;;;;;;0.63;0.63;;;3.40;99.90;;;;;;5011467;28;20698;-77
2022/02/15 09:50:32;;;;;;;0.50;0.50;;;3.50;99.90;;;;;;5012628;28;20579;-77
2022/02/15 09:52:59;;;;;;;0.60;0.60;;;3.60;99.90;;;;;;5011737;28;20210;-77
2022/02/15 09:55:26;;;;;;;0.60;0.60;;;3.60;99.90;;;;;;5010048;28;20210;-76
2022/02/15 09:57:52;;;;;;;0.70;0.70;;;3.70;99.90;;;;;;5011475;28;20293;-77
2022/02/15 10:00:22;;;;;;;0.50;0.50;;;3.70;99.90;;;;;;5009757;28;20205;-77
2022/02/15 10:02:51;;;;;;;0.43;0.43;;;3.70;99.90;;;;;;5010946;28;20198;-76
2022/02/15 10:05:19;;;;;;;0.63;0.63;;;3.70;99.90;;;;;;5011219;28;20203;-77
2022/02/15 10:07:57;;;;;;;0.60;0.60;;;3.70;99.90;;;;;;5010034;28;20203;-78
2022/02/15 10:10:37;;;;;;;0.80;0.80;;;3.70;99.90;;;;;;5010828;28;20696;-76
2022/02/15 10:13:11;;;;;;;0.60;0.60;;;3.70;99.90;;;;;;5010033;28;20666;-78
2022/02/15 10:15:41;;;;;;;0.70;0.70;;;3.70;99.90;;;;;;5009960;28;20297;-78
2022/02/15 10:18:13;;;;;;;0.50;0.50;;;3.80;99.90;;;;;;5009978;28;20205;-77
2022/02/15 10:20:46;;;;;;;0.50;0.50;;;3.80;99.90;;;;;;5011198;28;20703;-77
2022/02/15 10:23:26;;;;;;;0.60;0.60;;;3.90;99.90;;;;;;5011810;28;20357;-77
2022/02/15 10:25:53;;;;;;;11.00;1.40;;;4.00;99.90;;;;;;5010360;28;20666;-79
2022/02/15 10:28:23;;;;;;;0.50;0.50;;;4.00;99.90;;;;;;5011982;28;20280;-78
2022/02/15 10:30:56;;;;;;;0.60;0.60;;;4.00;99.90;;;;;;5010734;28;20690;-77
2022/02/15 10:33:31;;;;;;;0.60;0.60;;;4.00;99.90;;;;;;5010950;28;20226;-78
2022/02/15 10:36:02;;;;;;;0.60;0.60;;;4.10;99.90;;;;;;5010801;28;20296;-78
2022/02/15 10:38:41;;;;;;;3.33;1.83;;;4.10;99.90;;;;;;5010441;28;20547;-78
2022/02/15 10:41:12;;;;;;;1.42;1.10;;;4.20;99.90;;;;;;5011182;28;20682;-78
2022/02/15 10:43:46;;;;;;;0.60;0.60;;;4.30;99.90;;;;;;5011125;28;20207;-78
2022/02/15 10:46:22;;;;;;;0.70;0.70;;;4.50;99.90;;;;;;5014932;28;20581;-77
2022/02/15 10:48:48;;;;;;;0.65;0.65;;;4.50;99.90;;;;;;5000929;28;20321;-77
2022/02/15 10:51:15;;;;;;;0.50;0.50;;;4.50;99.90;;;;;;5026846;28;20361;-78
2022/02/15 10:53:42;;;;;;;0.57;0.57;;;4.50;99.90;;;;;;5003157;28;20608;-77
2022/02/15 10:56:13;;;;;;;0.60;0.60;;;4.60;99.90;;;;;;5024871;28;20268;-79
2022/02/15 10:58:39;;;;;;;0.50;0.50;;;4.70;99.90;;;;;;5015876;28;20688;-78
2022/02/15 11:01:07;;;;;;;0.70;0.70;;;4.80;99.90;;;;;;5013483;28;20213;-78
2022/02/15 11:03:35;;;;;;;0.70;0.70;;;4.90;99.90;;;;;;5013281;28;20209;-78
2022/02/15 11:06:02;;;;;;;0.60;0.60;;;5.00;99.90;;;;;;5014536;28;20230;-79
2022/02/15 11:08:30;;;;;;;0.70;0.70;;;5.10;99.90;;;;;;5013671;28;20234;-77
2022/02/15 11:11:05;;;;;;;0.73;0.73;;;5.10;99.90;;;;;;5012914;28;20566;-77
2022/02/15 11:13:34;;;;;;;0.60;0.60;;;5.10;99.90;;;;;;5013930;28;20205;-77
2022/02/15 11:16:02;;;;;;;0.60;0.60;;;5.10;99.90;;;;;;5015487;28;20685;-77
2022/02/15 11:18:30;;;;;;;0.50;0.50;;;5.10;99.90;;;;;;5029270;28;20309;-78
2022/02/15 11:20:58;;;;;;;0.60;0.60;;;5.10;99.90;;;;;;5013126;28;20203;-78
2022/02/15 11:23:26;;;;;;;2.45;0.90;;;5.10;99.90;;;;;;5013168;28;20289;-78
2022/02/15 11:26:07;;;;;;;0.70;0.70;;;5.10;99.90;;;;;;5011601;28;20210;-78
2022/02/15 11:28:34;;;;;;;0.60;0.60;;;5.10;99.90;;;;;;5013935;28;20739;-78
2022/02/15 11:31:01;;;;;;;0.88;0.88;;;5.00;99.90;;;;;;5014053;28;20205;-79
2022/02/15 11:33:35;;;;;;;0.70;0.70;;;5.00;99.90;;;;;;5012303;28;20207;-79
2022/02/15 11:36:13;;;;;;;0.70;0.70;;;5.00;99.90;;;;;;5012258;28;20218;-81
2022/02/15 11:38:51;;;;;;;0.60;0.60;;;5.00;99.90;;;;;;5012718;28;20210;-81
2022/02/15 11:41:54;;;;;;;0.50;0.50;;;5.10;99.90;;;;;;5013088;28;20207;-82
2022/02/15 11:44:44;;;;;;;0.70;0.70;;;5.00;99.90;;;;;;4992288;28;20218;-80
2022/02/15 11:47:31;;;;;;;0.60;0.60;;;5.00;99.90;;;;;;5028367;28;20693;-80
2022/02/15 11:50:17;;;;;;;0.60;0.60;;;4.90;99.90;;;;;;5013410;28;20695;-82
2022/02/15 11:53:01;;;;;;;0.60;0.60;;;4.80;99.90;;;;;;5013353;28;20210;-81
2022/02/15 11:55:40;;;;;;;0.60;0.60;;;4.70;99.90;;;;;;5013374;28;20244;-81
2022/02/15 11:58:08;;;;;;;0.55;0.55;;;4.70;99.90;;;;;;5012442;28;20203;-80
2022/02/15 12:00:39;;;;;;;0.68;0.68;;;4.70;99.90;;;;;;5012415;28;20206;-82
2022/02/15 12:03:05;;;;;;;0.50;0.50;;;4.60;99.90;;;;;;5010857;28;20281;-80
2022/02/15 12:05:35;;;;;;;0.57;0.57;;;4.60;99.90;;;;;;5012896;28;20809;-79
2022/02/15 12:08:01;;;;;;;0.60;0.60;;;4.50;99.90;;;;;;5014726;28;20630;-78
2022/02/15 12:10:38;;;;;;;0.60;0.60;;;4.50;99.90;;;;;;5011557;28;20294;-79
2022/02/15 12:13:24;;;;;;;0.60;0.60;;;4.50;99.90;;;;;;5012447;28;20213;-79
2022/02/15 12:16:10;;;;;;;0.50;0.50;;;4.60;99.90;;;;;;5013379;28;20210;-78
2022/02/15 12:18:39;;;;;;;0.65;0.65;;;4.70;99.90;;;;;;5015892;28;20206;-79
2022/02/15 12:21:19;;;;;;;1.85;1.60;;;4.80;99.90;;;;;;5013534;28;20195;-79
2022/02/15 12:24:19;;;;;;;0.50;0.50;;;4.80;99.90;;;;;;5011748;28;20215;-79
2022/02/15 12:26:50;;;;;;;0.60;0.60;;;4.90;99.90;;;;;;5010820;28;20206;-79
2022/02/15 12:29:16;;;;;;;0.60;0.60;;;4.90;99.90;;;;;;5011709;28;20530;-79
2022/02/15 12:31:44;;;;;;;0.68;0.68;;;4.90;99.90;;;;;;5012779;28;20289;-77
2022/02/15 12:34:34;;;;;;;0.60;0.60;;;4.90;99.90;;;;;;4998044;28;20306;-79
2022/02/15 12:37:05;;;;;;;0.50;0.50;;;4.80;99.90;;;;;;5012619;28;20210;-80
2022/02/15 12:43:18;;;;;;;0.77;0.77;;;4.70;99.90;;;;;;4943355;28;20303;-80
2022/02/15 12:46:25;;;;;;;;;;;;;;;;;;;;;
2022/02/15 12:48:51;;;;;;;0.77;0.77;;;4.70;99.90;;;;;;5009989;28;20229;-79
2022/02/15 12:51:26;;;;;;;0.70;0.70;;;4.80;99.90;;;;;;5011758;28;20221;-80
2022/02/15 12:54:02;;;;;;;0.60;0.60;;;4.70;99.90;;;;;;5013543;28;20260;-79
2022/02/15 12:59:25;;;;;;;0.60;0.60;;;4.70;99.90;;;;;;5013066;28;20214;-79
2022/02/15 13:02:17;;;;;;;0.50;0.50;;;4.80;99.90;;;;;;5010359;28;20259;-78
2022/02/15 13:04:59;;;;;;;2.03;1.88;;;4.80;99.90;;;;;;4998783;28;20310;-79
2022/02/15 13:08:14;;;;;;;0.60;0.60;;;4.90;99.90;;;;;;5012205;28;20706;-80
2022/02/15 13:10:53;;;;;;;0.60;0.60;;;4.90;99.90;;;;;;5000350;28;20199;-79
2022/02/15 13:13:27;;;;;;;0.60;0.60;;;4.80;99.90;;;;;;4997884;28;20194;-80
2022/02/15 13:16:13;;;;;;;0.70;0.70;;;4.80;99.90;;;;;;5028693;28;20623;-79
2022/02/15 13:18:50;;;;;;;0.60;0.60;;;4.80;99.90;;;;;;5011416;28;20707;-80